Time;durP1;ratioP1;P1;durP2;ratioP2;P2;SDS_P1;SDS_P2;PMS_P1;PMS_P2;Temp;Humidity;BMP_temperature;BMP_pressure;BME280_temperature;BME280_humidity;BME280_pressure;Samples;Min_cycle;Max_cycle;Signal;HPM_P1;HPM_P2
2021/05/19 00:00:17;;;;;;;2.70;2.50;;;11.70;99.90;;;;;;5089540;28;20204;-71
2021/05/19 00:02:43;;;;;;;2.40;2.20;;;11.70;99.90;;;;;;5096093;28;20545;-72
2021/05/19 00:05:11;;;;;;;4.10;2.20;;;11.60;99.90;;;;;;5097260;28;20224;-72
2021/05/19 00:07:38;;;;;;;2.30;1.97;;;11.70;99.90;;;;;;5102917;28;20239;-72
2021/05/19 00:10:07;;;;;;;3.47;2.60;;;11.70;99.90;;;;;;5089668;28;20201;-72
2021/05/19 00:12:33;;;;;;;2.60;2.40;;;11.70;99.90;;;;;;5097379;28;20291;-71
2021/05/19 00:15:00;;;;;;;3.70;2.07;;;11.70;99.90;;;;;;5100574;28;20220;-71
2021/05/19 00:17:27;;;;;;;2.93;2.40;;;11.70;99.90;;;;;;5098255;28;20251;-71
2021/05/19 00:19:53;;;;;;;3.87;2.60;;;11.80;99.90;;;;;;5091815;28;20295;-71
2021/05/19 00:22:20;;;;;;;3.43;2.33;;;11.70;99.90;;;;;;5092207;28;20702;-72
2021/05/19 00:24:46;;;;;;;3.00;2.07;;;11.70;99.90;;;;;;5095053;28;20220;-72
2021/05/19 00:27:13;;;;;;;7.97;2.27;;;11.80;99.90;;;;;;5112601;28;20681;-70
2021/05/19 00:29:41;;;;;;;2.57;2.10;;;11.80;99.90;;;;;;5102883;28;20287;-72
2021/05/19 00:32:07;;;;;;;3.40;2.00;;;11.70;99.90;;;;;;5095994;28;20230;-71
2021/05/19 00:34:34;;;;;;;2.07;1.90;;;11.70;99.90;;;;;;5098314;28;20208;-71
2021/05/19 00:37:00;;;;;;;2.93;2.20;;;11.60;99.90;;;;;;5110173;28;20204;-72
2021/05/19 00:39:26;;;;;;;15.90;2.53;;;11.70;99.90;;;;;;5104390;28;20200;-72
2021/05/19 00:41:53;;;;;;;4.30;2.57;;;11.70;99.90;;;;;;5102506;28;20522;-73
2021/05/19 00:44:21;;;;;;;3.40;2.40;;;11.70;99.90;;;;;;5094032;28;20364;-71
2021/05/19 00:46:48;;;;;;;2.23;2.03;;;11.70;99.90;;;;;;5094900;28;20590;-72
2021/05/19 00:49:15;;;;;;;3.83;2.33;;;11.60;99.90;;;;;;5098957;28;20704;-71
2021/05/19 00:51:42;;;;;;;2.87;2.20;;;11.60;99.90;;;;;;5107685;28;20331;-72
2021/05/19 00:54:09;;;;;;;3.50;2.60;;;11.60;99.90;;;;;;5105582;28;20222;-71
2021/05/19 00:56:35;;;;;;;2.63;2.20;;;11.60;99.90;;;;;;5103856;28;20323;-71
2021/05/19 00:59:03;;;;;;;2.80;2.53;;;11.60;99.90;;;;;;5113141;28;20206;-71
2021/05/19 01:01:35;;;;;;;2.57;1.73;;;11.60;99.90;;;;;;5104394;27;20207;-72
2021/05/19 01:04:01;;;;;;;3.13;2.30;;;11.60;99.90;;;;;;5107861;28;20235;-71
2021/05/19 01:06:33;;;;;;;3.20;2.40;;;11.60;99.90;;;;;;5097829;28;20204;-71
2021/05/19 01:11:43;;;;;;;2.27;2.07;;;11.60;99.90;;;;;;5092042;28;20200;-70
2021/05/19 01:14:10;;;;;;;3.33;2.07;;;11.60;99.90;;;;;;5093712;28;20289;-70
2021/05/19 01:16:37;;;;;;;4.27;2.57;;;11.60;99.90;;;;;;5104021;28;20789;-72
2021/05/19 01:19:06;;;;;;;3.00;2.70;;;11.60;99.90;;;;;;5108708;28;20641;-72
2021/05/19 01:21:33;;;;;;;2.60;2.23;;;11.60;99.90;;;;;;5107604;28;20196;-71
2021/05/19 01:24:01;;;;;;;2.17;1.97;;;11.60;99.90;;;;;;5093252;28;20586;-71
2021/05/19 01:26:27;;;;;;;2.23;2.03;;;11.60;99.90;;;;;;5093174;28;20295;-71
2021/05/19 01:28:54;;;;;;;3.93;2.37;;;11.60;99.90;;;;;;5097872;28;20200;-71
2021/05/19 01:31:20;;;;;;;3.73;2.10;;;11.60;99.90;;;;;;5104564;27;20296;-71
2021/05/19 01:33:49;;;;;;;3.30;1.90;;;11.60;99.90;;;;;;5094335;28;20216;-73
2021/05/19 01:36:15;;;;;;;2.63;2.30;;;11.60;99.90;;;;;;5099797;28;20204;-71
2021/05/19 01:38:42;;;;;;;2.50;2.30;;;11.60;99.90;;;;;;5098769;28;20726;-72
2021/05/19 01:41:09;;;;;;;2.63;2.30;;;11.60;99.90;;;;;;5105861;28;20208;-71
2021/05/19 01:43:36;;;;;;;3.50;2.20;;;11.50;99.90;;;;;;5092031;28;20259;-72
2021/05/19 01:46:04;;;;;;;2.40;2.10;;;11.50;99.90;;;;;;5101479;28;20218;-72
2021/05/19 01:48:33;;;;;;;2.60;1.80;;;11.50;99.90;;;;;;5096224;28;20235;-72
2021/05/19 01:51:00;;;;;;;2.03;1.87;;;11.50;99.90;;;;;;5089463;28;20264;-71
2021/05/19 01:53:31;;;;;;;1.87;1.73;;;11.50;99.90;;;;;;5094896;28;20323;-72
2021/05/19 01:55:59;;;;;;;1.73;1.63;;;11.50;99.90;;;;;;5091869;28;20253;-72
2021/05/19 01:58:26;;;;;;;1.60;1.50;;;11.50;99.90;;;;;;5099317;28;20301;-72
2021/05/19 02:00:53;;;;;;;1.63;1.53;;;11.40;99.90;;;;;;5101620;28;20653;-72
2021/05/19 02:03:20;;;;;;;1.87;1.77;;;11.50;99.90;;;;;;5103439;28;20292;-71
2021/05/19 02:05:46;;;;;;;1.60;1.50;;;11.50;99.90;;;;;;5104833;28;20207;-71
2021/05/19 02:08:13;;;;;;;1.60;1.50;;;11.50;99.90;;;;;;5108918;28;20224;-70
2021/05/19 02:10:42;;;;;;;2.00;1.80;;;11.50;99.90;;;;;;5093626;28;20208;-70
2021/05/19 02:13:10;;;;;;;2.33;1.40;;;11.50;99.90;;;;;;5094065;28;20335;-71
2021/05/19 02:15:38;;;;;;;2.17;1.40;;;11.60;99.90;;;;;;5096421;28;20208;-71
2021/05/19 02:18:04;;;;;;;1.83;1.53;;;11.60;99.90;;;;;;5095776;28;20209;-70
2021/05/19 02:20:31;;;;;;;2.67;1.63;;;11.60;99.90;;;;;;5093520;28;20343;-71
2021/05/19 02:22:58;;;;;;;1.40;1.30;;;11.60;99.90;;;;;;5105401;28;20210;-71
2021/05/19 02:25:25;;;;;;;1.43;1.33;;;11.60;99.90;;;;;;5105637;28;20249;-71
2021/05/19 02:27:53;;;;;;;3.43;1.60;;;11.60;99.90;;;;;;5104227;28;20255;-71
2021/05/19 02:30:21;;;;;;;1.47;1.37;;;11.60;99.90;;;;;;5098468;28;20204;-71
2021/05/19 02:32:49;;;;;;;3.37;1.47;;;11.60;99.90;;;;;;5097308;27;20208;-71
2021/05/19 02:35:16;;;;;;;1.90;1.40;;;11.60;99.90;;;;;;5106089;28;20247;-70
2021/05/19 02:37:43;;;;;;;1.63;1.53;;;11.60;99.90;;;;;;5111021;28;20291;-71
2021/05/19 02:40:11;;;;;;;2.23;1.50;;;11.50;99.90;;;;;;5098834;28;20687;-71
2021/05/19 02:42:38;;;;;;;3.00;1.63;;;11.50;99.90;;;;;;5098412;28;20291;-71
2021/05/19 02:45:06;;;;;;;2.20;1.90;;;11.50;99.90;;;;;;5107630;28;20209;-71
2021/05/19 02:47:32;;;;;;;1.93;1.50;;;11.50;99.90;;;;;;5092866;28;20636;-70
2021/05/19 02:49:59;;;;;;;3.07;1.90;;;11.50;99.90;;;;;;5100545;28;20327;-70
2021/05/19 02:52:26;;;;;;;2.53;1.60;;;11.50;99.90;;;;;;5101254;28;20274;-70
2021/05/19 02:54:52;;;;;;;2.63;1.77;;;11.50;99.90;;;;;;5108027;28;20201;-71
2021/05/19 02:57:19;;;;;;;2.40;1.80;;;11.50;99.90;;;;;;5105587;28;20296;-70
2021/05/19 02:59:45;;;;;;;2.93;1.93;;;11.50;99.90;;;;;;5092175;28;20236;-70
2021/05/19 03:02:11;;;;;;;3.17;2.17;;;11.50;99.90;;;;;;5098368;28;20200;-70
2021/05/19 03:04:38;;;;;;;2.53;2.00;;;11.50;99.90;;;;;;5111980;28;20290;-70
2021/05/19 03:07:06;;;;;;;2.43;1.80;;;11.50;99.90;;;;;;5106563;28;20232;-70
2021/05/19 03:09:32;;;;;;;2.37;2.00;;;11.50;99.90;;;;;;5098879;28;20204;-71
2021/05/19 03:11:59;;;;;;;3.87;2.37;;;11.50;99.90;;;;;;5095758;28;20572;-71
2021/05/19 03:14:25;;;;;;;3.80;2.10;;;11.50;99.90;;;;;;5107962;28;20589;-71
2021/05/19 03:16:51;;;;;;;3.27;2.43;;;11.50;99.90;;;;;;5101562;28;20206;-71
2021/05/19 03:19:18;;;;;;;3.50;2.33;;;11.60;99.90;;;;;;5109617;28;20295;-72
2021/05/19 03:21:44;;;;;;;4.57;2.40;;;11.50;99.90;;;;;;5095522;28;20217;-76
2021/05/19 03:24:12;;;;;;;4.13;2.70;;;11.60;99.90;;;;;;5093490;28;20242;-76
2021/05/19 03:26:38;;;;;;;3.20;2.50;;;11.60;99.90;;;;;;5092922;28;20214;-75
2021/05/19 03:29:04;;;;;;;2.90;2.57;;;11.60;99.90;;;;;;5090644;28;20291;-76
2021/05/19 03:31:31;;;;;;;4.47;2.70;;;11.60;99.90;;;;;;5091971;28;20341;-75
2021/05/19 03:33:58;;;;;;;3.73;3.00;;;11.70;99.90;;;;;;5093153;28;20246;-76
2021/05/19 03:36:24;;;;;;;3.80;3.37;;;11.60;99.90;;;;;;5101115;28;20286;-75
2021/05/19 03:38:50;;;;;;;7.63;3.17;;;11.70;99.90;;;;;;5095350;28;20201;-74
2021/05/19 03:41:18;;;;;;;4.43;3.10;;;11.70;99.90;;;;;;5094063;28;20209;-76
2021/05/19 03:43:44;;;;;;;4.00;2.90;;;11.70;99.90;;;;;;5105605;28;20567;-75
2021/05/19 03:46:13;;;;;;;4.13;3.10;;;11.70;99.90;;;;;;5101798;28;20307;-75
2021/05/19 03:48:40;;;;;;;4.13;3.70;;;11.70;99.90;;;;;;5106226;28;20580;-75
2021/05/19 03:51:06;;;;;;;5.07;4.07;;;11.70;99.90;;;;;;5096143;28;20236;-75
2021/05/19 03:53:32;;;;;;;6.93;3.40;;;11.70;99.90;;;;;;5109659;28;20215;-76
2021/05/19 03:55:59;;;;;;;4.97;3.53;;;11.60;99.90;;;;;;5102214;28;20215;-76
2021/05/19 03:58:26;;;;;;;4.47;3.83;;;11.70;99.90;;;;;;5102199;28;20350;-75
2021/05/19 04:00:53;;;;;;;5.83;3.80;;;11.70;99.90;;;;;;5099341;28;20210;-77
2021/05/19 04:03:19;;;;;;;4.20;3.57;;;11.70;99.90;;;;;;5103642;28;20290;-75
2021/05/19 04:05:46;;;;;;;5.93;3.70;;;11.80;99.90;;;;;;5110896;28;20581;-75
2021/05/19 04:08:12;;;;;;;4.20;3.60;;;11.70;99.90;;;;;;5092156;28;20303;-76
2021/05/19 04:10:39;;;;;;;5.10;4.10;;;11.70;99.90;;;;;;5095041;28;20209;-76
2021/05/19 04:13:05;;;;;;;4.80;3.53;;;11.70;99.90;;;;;;5095912;28;20239;-75
2021/05/19 04:15:34;;;;;;;6.23;3.70;;;11.70;99.90;;;;;;5101230;28;20264;-75
2021/05/19 04:18:01;;;;;;;6.00;4.33;;;11.80;99.90;;;;;;5093184;28;20669;-75
2021/05/19 04:20:27;;;;;;;4.80;3.57;;;11.70;99.90;;;;;;5104755;28;20303;-75
2021/05/19 04:22:54;;;;;;;4.23;3.63;;;11.70;99.90;;;;;;5096326;28;20262;-75
2021/05/19 04:25:21;;;;;;;5.37;3.70;;;11.80;99.90;;;;;;5095902;28;20208;-77
2021/05/19 04:27:48;;;;;;;3.97;3.33;;;11.70;99.90;;;;;;5109109;28;20311;-76
2021/05/19 04:30:15;;;;;;;4.30;3.73;;;11.70;99.90;;;;;;5109331;28;20227;-75
2021/05/19 04:32:43;;;;;;;5.83;4.00;;;11.70;99.90;;;;;;5091789;28;20299;-76
2021/05/19 04:35:10;;;;;;;5.17;3.40;;;11.80;99.90;;;;;;5093728;28;20772;-77
2021/05/19 04:37:37;;;;;;;5.67;4.40;;;11.70;99.90;;;;;;5094345;28;20230;-76
2021/05/19 04:40:05;;;;;;;5.47;3.23;;;11.80;99.90;;;;;;5094743;28;20210;-76
2021/05/19 04:42:32;;;;;;;4.63;3.23;;;11.70;99.90;;;;;;5098693;28;20275;-75
2021/05/19 04:44:58;;;;;;;3.90;3.07;;;11.70;99.90;;;;;;5091679;28;20251;-76
2021/05/19 04:47:25;;;;;;;4.50;3.57;;;11.80;99.90;;;;;;5103949;28;20691;-75
2021/05/19 04:49:52;;;;;;;3.80;2.87;;;11.70;99.90;;;;;;5098939;28;20224;-75
2021/05/19 04:52:18;;;;;;;3.83;3.30;;;11.70;99.90;;;;;;5096553;28;20614;-75
2021/05/19 04:54:45;;;;;;;5.30;3.57;;;11.80;99.90;;;;;;5103575;28;20208;-75
2021/05/19 04:57:11;;;;;;;5.73;3.73;;;11.80;99.90;;;;;;5104770;28;20201;-74
2021/05/19 04:59:38;;;;;;;4.80;3.13;;;11.80;99.90;;;;;;5098814;28;20303;-76
2021/05/19 05:02:04;;;;;;;3.70;3.27;;;11.80;99.90;;;;;;5092194;28;20204;-75
2021/05/19 05:04:30;;;;;;;4.83;3.40;;;11.80;99.90;;;;;;5092268;28;20215;-75
2021/05/19 05:06:58;;;;;;;4.47;3.67;;;11.80;99.90;;;;;;5098071;28;20254;-75
2021/05/19 05:09:25;;;;;;;4.87;3.37;;;11.80;99.90;;;;;;5100626;28;20208;-74
2021/05/19 05:11:52;;;;;;;6.33;3.50;;;11.80;99.90;;;;;;5095678;28;20206;-76
2021/05/19 05:14:18;;;;;;;3.80;3.50;;;11.70;99.90;;;;;;5111004;28;20228;-74
2021/05/19 05:16:45;;;;;;;6.43;3.60;;;11.70;99.90;;;;;;5111265;28;20571;-74
2021/05/19 05:19:11;;;;;;;5.23;3.70;;;11.70;99.90;;;;;;5110522;28;20208;-75
2021/05/19 05:21:37;;;;;;;4.97;3.53;;;11.70;99.90;;;;;;5112035;27;20631;-73
2021/05/19 05:24:06;;;;;;;5.20;3.73;;;11.70;99.90;;;;;;5094494;28;20668;-74
2021/05/19 05:26:33;;;;;;;5.33;3.70;;;11.80;99.90;;;;;;5094699;28;20201;-75
2021/05/19 05:28:59;;;;;;;4.20;3.80;;;11.70;99.90;;;;;;5099446;28;20275;-75
2021/05/19 05:31:25;;;;;;;4.63;4.13;;;11.70;99.90;;;;;;5103803;28;20223;-75
2021/05/19 05:33:52;;;;;;;5.07;3.90;;;11.80;99.90;;;;;;5094807;28;20283;-75
2021/05/19 05:36:19;;;;;;;5.23;4.27;;;11.80;99.90;;;;;;5095570;28;20201;-75
2021/05/19 05:38:45;;;;;;;7.53;4.80;;;11.70;99.90;;;;;;5105051;28;20201;-76
2021/05/19 05:41:13;;;;;;;6.37;4.63;;;11.80;99.90;;;;;;5096475;28;20572;-76
2021/05/19 05:43:39;;;;;;;8.27;5.23;;;11.80;99.90;;;;;;5087325;28;20244;-74
2021/05/19 05:46:05;;;;;;;6.33;4.43;;;11.80;99.90;;;;;;5093347;28;20209;-75
2021/05/19 05:48:32;;;;;;;7.50;5.60;;;11.80;99.90;;;;;;5093473;28;20299;-72
2021/05/19 05:51:00;;;;;;;8.30;5.43;;;11.90;99.90;;;;;;5097163;28;20712;-76
2021/05/19 05:53:26;;;;;;;6.97;5.00;;;11.90;99.90;;;;;;5095568;28;20212;-77
2021/05/19 05:55:52;;;;;;;7.10;5.13;;;11.90;99.90;;;;;;5094021;28;20204;-76
2021/05/19 05:58:20;;;;;;;8.73;5.40;;;11.90;99.90;;;;;;5101659;28;20228;-74
2021/05/19 06:00:46;;;;;;;8.77;4.90;;;11.90;99.90;;;;;;5101744;28;20287;-73
2021/05/19 06:03:13;;;;;;;6.83;5.20;;;11.90;99.90;;;;;;5095634;28;20620;-75
2021/05/19 06:05:40;;;;;;;8.43;4.63;;;11.90;99.90;;;;;;5093355;28;20216;-76
2021/05/19 06:08:07;;;;;;;7.73;5.37;;;12.00;99.90;;;;;;5101207;28;20311;-69
2021/05/19 06:10:33;;;;;;;6.93;5.60;;;12.10;99.90;;;;;;5097451;27;20412;-73
2021/05/19 06:13:00;;;;;;;7.03;5.63;;;12.10;99.90;;;;;;5097589;28;20208;-73
2021/05/19 06:15:27;;;;;;;6.13;4.90;;;12.20;99.90;;;;;;5092936;28;20223;-72
2021/05/19 06:17:54;;;;;;;6.67;4.67;;;12.10;99.90;;;;;;5097690;28;20254;-75
2021/05/19 06:20:20;;;;;;;8.10;5.40;;;12.20;99.90;;;;;;5098255;28;20224;-72
2021/05/19 06:22:47;;;;;;;6.37;5.67;;;12.20;99.90;;;;;;5097756;27;20209;-69
2021/05/19 06:25:16;;;;;;;9.07;6.10;;;12.20;99.90;;;;;;5094820;28;20295;-71
2021/05/19 06:27:43;;;;;;;8.57;5.80;;;12.30;99.90;;;;;;5102181;28;20226;-70
2021/05/19 06:30:10;;;;;;;7.93;6.23;;;12.30;99.90;;;;;;5103089;28;20245;-71
2021/05/19 06:32:38;;;;;;;11.63;6.30;;;12.40;99.90;;;;;;5093428;28;20204;-70
2021/05/19 06:35:05;;;;;;;8.10;6.10;;;12.40;99.90;;;;;;5095675;28;20208;-71
2021/05/19 06:37:32;;;;;;;10.10;7.23;;;12.40;99.90;;;;;;5094351;28;20200;-70
2021/05/19 06:39:58;;;;;;;7.57;6.33;;;12.40;99.90;;;;;;5087723;28;20305;-70
2021/05/19 06:42:25;;;;;;;9.10;6.27;;;12.40;99.90;;;;;;5094668;28;20249;-71
2021/05/19 06:44:53;;;;;;;7.93;6.33;;;12.40;99.90;;;;;;5094228;28;20641;-72
2021/05/19 06:47:19;;;;;;;9.47;6.73;;;12.50;99.90;;;;;;5094495;28;20250;-71
2021/05/19 06:49:47;;;;;;;7.80;6.37;;;12.60;99.90;;;;;;5094205;28;20304;-72
2021/05/19 06:52:15;;;;;;;9.13;6.83;;;12.60;99.90;;;;;;5091310;28;20210;-72
2021/05/19 06:54:42;;;;;;;8.63;6.27;;;12.60;99.90;;;;;;5093088;28;20720;-71
2021/05/19 06:57:08;;;;;;;8.37;6.83;;;12.70;99.90;;;;;;5094820;28;20232;-70
2021/05/19 06:59:34;;;;;;;8.60;6.67;;;12.70;99.90;;;;;;5093220;28;20257;-70
2021/05/19 07:02:01;;;;;;;8.67;6.70;;;12.70;99.90;;;;;;5092336;28;20212;-70
2021/05/19 07:04:27;;;;;;;8.47;6.97;;;12.70;99.90;;;;;;5091410;28;20307;-69
2021/05/19 07:06:56;;;;;;;9.30;6.67;;;12.70;99.90;;;;;;5094378;28;20304;-70
2021/05/19 07:09:25;;;;;;;9.27;7.00;;;12.70;99.90;;;;;;5092345;28;20205;-70
2021/05/19 07:11:51;;;;;;;10.50;7.10;;;12.70;99.90;;;;;;5090651;28;20213;-70
2021/05/19 07:14:21;;;;;;;9.87;7.20;;;12.70;99.90;;;;;;5094448;28;20619;-71
2021/05/19 07:16:50;;;;;;;9.17;7.40;;;12.70;99.90;;;;;;5092276;28;20709;-69
2021/05/19 07:19:17;;;;;;;10.07;7.87;;;12.80;99.90;;;;;;5082643;28;20213;-70
2021/05/19 07:21:43;;;;;;;11.43;8.30;;;12.80;99.90;;;;;;5090923;28;20300;-69
2021/05/19 07:24:12;;;;;;;10.20;7.90;;;12.80;99.90;;;;;;5093326;28;20208;-69
2021/05/19 07:26:40;;;;;;;10.67;8.37;;;12.90;99.90;;;;;;5093036;28;20216;-70
2021/05/19 07:29:06;;;;;;;11.47;8.20;;;12.90;99.90;;;;;;5093209;28;20228;-68
2021/05/19 07:31:33;;;;;;;10.80;8.43;;;12.90;99.90;;;;;;5107618;28;20298;-69
2021/05/19 07:34:00;;;;;;;10.27;8.40;;;13.00;99.90;;;;;;5092202;28;20278;-68
2021/05/19 07:36:26;;;;;;;11.73;7.83;;;13.00;99.90;;;;;;5092641;28;20208;-69
2021/05/19 07:38:53;;;;;;;10.23;7.70;;;13.10;99.90;;;;;;5101457;28;20196;-67
2021/05/19 07:41:21;;;;;;;10.53;8.03;;;13.10;99.90;;;;;;5087656;28;20222;-69
2021/05/19 07:43:47;;;;;;;10.10;7.87;;;13.10;99.90;;;;;;5092236;28;20238;-66
2021/05/19 07:46:16;;;;;;;10.60;8.47;;;13.20;99.90;;;;;;5097881;28;20204;-68
2021/05/19 07:48:45;;;;;;;11.67;8.63;;;13.30;99.90;;;;;;5092770;28;20229;-70
2021/05/19 07:51:11;;;;;;;10.10;7.83;;;13.40;99.90;;;;;;5091515;28;20244;-69
2021/05/19 07:53:37;;;;;;;9.47;8.10;;;13.50;99.90;;;;;;5092972;28;20205;-69
2021/05/19 07:56:09;;;;;;;9.10;8.20;;;13.60;99.90;;;;;;5085098;28;20206;-69
2021/05/19 07:58:39;;;;;;;11.43;8.37;;;13.60;99.90;;;;;;5085879;28;20205;-69
2021/05/19 08:01:11;;;;;;;10.93;8.37;;;13.70;99.90;;;;;;5091857;28;20211;-70
2021/05/19 08:03:38;;;;;;;9.87;8.23;;;13.80;99.90;;;;;;5091904;28;20223;-69
2021/05/19 08:06:05;;;;;;;9.70;8.33;;;13.90;99.90;;;;;;5092566;28;20279;-70
2021/05/19 08:08:31;;;;;;;9.93;8.57;;;13.90;99.90;;;;;;5092208;28;20311;-70
2021/05/19 08:10:58;;;;;;;10.70;8.20;;;13.90;99.90;;;;;;5089725;28;20216;-68
2021/05/19 08:13:25;;;;;;;11.10;8.17;;;13.90;99.90;;;;;;5095235;28;20280;-69
2021/05/19 08:15:52;;;;;;;9.50;7.80;;;14.00;99.90;;;;;;5095397;28;20295;-69
2021/05/19 08:18:19;;;;;;;10.37;8.23;;;14.10;99.90;;;;;;5085203;28;20228;-71
2021/05/19 08:20:46;;;;;;;10.40;8.70;;;14.10;99.90;;;;;;5093012;28;20243;-70
2021/05/19 08:23:12;;;;;;;11.43;8.87;;;14.30;99.90;;;;;;5092195;28;20214;-67
2021/05/19 08:25:40;;;;;;;8.57;7.60;;;14.40;99.90;;;;;;5091934;28;20215;-69
2021/05/19 08:28:07;;;;;;;9.73;8.13;;;14.50;99.90;;;;;;5092163;28;20231;-69
2021/05/19 08:30:33;;;;;;;9.17;7.47;;;14.60;99.90;;;;;;5091139;28;20713;-70
2021/05/19 08:33:00;;;;;;;9.23;8.30;;;14.60;99.90;;;;;;5092270;28;20239;-70
2021/05/19 08:35:27;;;;;;;9.13;7.37;;;14.70;99.90;;;;;;5091738;28;20251;-67
2021/05/19 08:37:55;;;;;;;11.00;8.17;;;14.80;99.90;;;;;;5090342;28;20201;-67
2021/05/19 08:40:21;;;;;;;9.47;7.57;;;14.80;99.90;;;;;;5085187;28;20243;-68
2021/05/19 08:42:49;;;;;;;7.83;7.03;;;14.70;99.90;;;;;;5095378;28;20204;-68
2021/05/19 08:45:16;;;;;;;10.27;7.30;;;14.80;99.90;;;;;;5110823;27;20664;-67
2021/05/19 08:47:42;;;;;;;10.20;7.97;;;14.80;99.90;;;;;;5102987;28;20219;-71
2021/05/19 08:50:11;;;;;;;9.50;7.70;;;14.80;99.90;;;;;;5106318;28;20232;-69
2021/05/19 08:52:38;;;;;;;11.40;7.13;;;14.80;99.90;;;;;;5102559;28;20214;-70
2021/05/19 08:55:20;;;;;;;15.13;7.13;;;14.90;99.90;;;;;;5096998;28;20272;-71
2021/05/19 08:57:47;;;;;;;9.50;6.97;;;14.90;99.90;;;;;;5090746;28;20188;-68
2021/05/19 09:00:16;;;;;;;12.03;7.30;;;14.90;99.90;;;;;;5096430;28;20218;-69
2021/05/19 09:03:03;;;;;;;9.37;7.03;;;14.90;99.90;;;;;;5094718;28;20212;-70
2021/05/19 09:05:32;;;;;;;11.23;7.73;;;15.00;99.90;;;;;;5099899;28;20199;-70
2021/05/19 09:08:03;;;;;;;11.17;7.03;;;15.10;99.90;;;;;;5095053;28;20258;-69
2021/05/19 09:10:30;;;;;;;10.17;8.10;;;15.20;99.90;;;;;;5094233;28;20219;-68
2021/05/19 09:12:56;;;;;;;10.97;8.03;;;15.30;99.90;;;;;;5094745;28;20208;-70
2021/05/19 09:15:24;;;;;;;9.10;7.47;;;15.50;99.90;;;;;;5088707;28;20221;-71
2021/05/19 09:17:56;;;;;;;8.73;7.83;;;15.70;99.90;;;;;;5093922;28;20254;-70
2021/05/19 09:20:22;;;;;;;12.00;7.50;;;15.90;99.90;;;;;;5081890;28;20220;-70
2021/05/19 09:23:01;;;;;;;10.53;7.30;;;16.10;99.90;;;;;;5095865;28;20213;-70
2021/05/19 09:25:30;;;;;;;8.13;6.57;;;16.20;99.90;;;;;;5080327;28;20196;-70
2021/05/19 09:27:59;;;;;;;7.43;6.60;;;16.30;99.90;;;;;;5102041;28;20277;-69
2021/05/19 09:30:39;;;;;;;11.67;7.47;;;16.40;99.90;;;;;;5096366;27;20214;-70
2021/05/19 09:33:13;;;;;;;7.73;6.17;;;16.40;99.90;;;;;;5099462;28;20683;-68
2021/05/19 09:35:39;;;;;;;7.53;6.80;;;16.40;99.90;;;;;;5092572;28;20658;-70
2021/05/19 09:38:26;;;;;;;9.43;7.10;;;16.40;99.90;;;;;;5097478;28;20260;-70
2021/05/19 09:41:23;;;;;;;8.60;6.80;;;16.50;99.90;;;;;;5095597;28;20200;-70
2021/05/19 09:43:53;;;;;;;10.47;6.47;;;16.50;99.90;;;;;;5099376;28;20200;-71
2021/05/19 09:46:23;;;;;;;9.40;6.13;;;16.50;99.90;;;;;;5097366;28;20208;-75
2021/05/19 09:49:12;;;;;;;11.50;7.07;;;16.50;99.90;;;;;;5097454;28;20220;-75
2021/05/19 09:51:38;;;;;;;7.63;6.83;;;16.40;99.90;;;;;;5095409;28;20232;-70
2021/05/19 09:54:23;;;;;;;7.60;6.27;;;16.30;99.90;;;;;;5091267;28;20345;-73
2021/05/19 09:56:54;;;;;;;6.67;5.90;;;16.30;99.90;;;;;;5103144;28;20283;-73
2021/05/19 09:59:23;;;;;;;10.23;6.17;;;16.20;99.90;;;;;;5094568;28;20204;-71
2021/05/19 10:01:51;;;;;;;8.20;6.20;;;16.20;99.90;;;;;;5093946;28;20347;-70
2021/05/19 10:04:20;;;;;;;8.97;6.23;;;16.20;99.90;;;;;;5095101;28;20200;-69
2021/05/19 10:06:47;;;;;;;8.67;6.07;;;16.20;99.90;;;;;;5092063;28;20626;-70
2021/05/19 10:09:15;;;;;;;5.67;5.10;;;16.30;99.90;;;;;;5108726;28;20313;-70
2021/05/19 10:11:43;;;;;;;8.77;5.50;;;16.30;99.90;;;;;;5100421;28;20211;-69
2021/05/19 10:14:12;;;;;;;7.67;5.87;;;16.40;99.90;;;;;;5101974;27;20228;-70
2021/05/19 10:16:42;;;;;;;7.47;5.23;;;16.50;99.90;;;;;;5096472;28;20303;-69
2021/05/19 10:19:11;;;;;;;8.30;4.97;;;16.60;99.90;;;;;;5102067;28;20227;-68
2021/05/19 10:21:39;;;;;;;5.47;4.87;;;16.60;99.90;;;;;;5098194;28;20209;-69
2021/05/19 10:24:07;;;;;;;9.47;5.43;;;16.70;99.90;;;;;;5098666;28;20291;-69
2021/05/19 10:27:06;;;;;;;7.53;5.03;;;16.70;99.90;;;;;;5104384;28;20290;-69
2021/05/19 10:29:54;;;;;;;6.53;4.73;;;16.70;99.90;;;;;;5094440;28;20239;-69
2021/05/19 10:32:31;;;;;;;6.70;4.43;;;16.70;99.90;;;;;;5097199;28;20330;-70
2021/05/19 10:34:59;;;;;;;5.23;3.90;;;16.60;99.90;;;;;;5093948;28;20581;-69
2021/05/19 10:37:45;;;;;;;5.83;3.80;;;16.60;99.90;;;;;;5097794;28;20214;-70
2021/05/19 10:40:31;;;;;;;6.43;4.00;;;16.70;99.90;;;;;;5096699;28;20224;-70
2021/05/19 10:43:03;;;;;;;7.63;4.07;;;16.90;99.90;;;;;;5099610;28;20568;-70
2021/05/19 10:45:30;;;;;;;4.57;3.70;;;17.00;99.90;;;;;;5091664;28;20645;-69
2021/05/19 10:47:57;;;;;;;6.13;5.60;;;17.20;99.90;;;;;;5096225;28;20232;-69
2021/05/19 10:50:31;;;;;;;4.93;3.83;;;17.30;99.90;;;;;;5104103;28;20270;-69
2021/05/19 10:58:44;;;;;;;6.77;3.47;;;17.40;99.90;;;;;;5101577;28;20567;-69
2021/05/19 11:01:11;;;;;;;5.27;3.00;;;17.50;99.90;;;;;;5093390;28;20633;-68
2021/05/19 11:03:39;;;;;;;3.47;2.90;;;17.50;99.90;;;;;;5097112;28;20320;-70
2021/05/19 11:06:11;;;;;;;4.17;2.90;;;17.60;99.90;;;;;;5095200;28;20578;-68
2021/05/19 11:08:39;;;;;;;5.63;2.37;;;17.70;99.90;;;;;;5095025;28;20307;-70
2021/05/19 11:11:21;;;;;;;3.40;2.67;;;17.70;99.90;;;;;;5102257;28;20215;-71
2021/05/19 11:14:09;;;;;;;4.33;2.77;;;17.60;99.90;;;;;;5091742;28;20270;-71
2021/05/19 11:16:49;;;;;;;3.93;3.00;;;17.60;99.90;;;;;;5090334;28;20216;-68
2021/05/19 11:19:29;;;;;;;3.80;2.83;;;17.50;99.90;;;;;;5092109;28;20209;-69
2021/05/19 11:22:04;;;;;;;7.47;3.07;;;17.60;99.90;;;;;;5093945;28;20200;-68
2021/05/19 11:24:31;;;;;;;2.83;2.57;;;17.60;99.90;;;;;;5084635;28;20200;-70
2021/05/19 11:26:57;;;;;;;3.67;2.50;;;17.60;99.90;;;;;;5097055;28;20295;-68
2021/05/19 11:29:25;;;;;;;4.63;2.97;;;17.50;99.90;;;;;;5102844;28;20303;-70
2021/05/19 11:31:54;;;;;;;4.10;2.97;;;17.60;99.90;;;;;;5092927;28;20216;-72
2021/05/19 11:34:21;;;;;;;6.00;2.70;;;17.70;99.90;;;;;;5092388;28;20561;-71
2021/05/19 11:36:50;;;;;;;3.50;2.50;;;17.80;99.90;;;;;;5079584;28;20205;-72
2021/05/19 11:39:30;;;;;;;2.70;2.50;;;17.90;99.90;;;;;;5092325;28;20196;-70
2021/05/19 11:42:10;;;;;;;3.73;2.70;;;17.90;99.90;;;;;;5103541;28;20212;-68
2021/05/19 11:44:40;;;;;;;3.03;2.30;;;17.80;99.90;;;;;;5091914;28;20295;-71
2021/05/19 11:47:08;;;;;;;2.93;2.60;;;17.90;99.90;;;;;;5095887;28;20644;-71
2021/05/19 11:49:34;;;;;;;2.97;2.40;;;18.10;99.50;;;;;;5111311;28;20220;-72
2021/05/19 11:52:01;;;;;;;3.53;2.40;;;18.20;98.00;;;;;;5099010;28;20232;-73
2021/05/19 11:54:28;;;;;;;2.73;2.53;;;18.40;96.80;;;;;;5100241;27;20291;-67
2021/05/19 11:56:57;;;;;;;2.63;2.43;;;18.60;96.60;;;;;;5092314;28;20295;-75
2021/05/19 11:59:27;;;;;;;3.67;2.70;;;18.80;95.70;;;;;;5107364;28;20718;-73
2021/05/19 12:02:00;;;;;;;3.10;2.65;;;18.90;95.40;;;;;;5084527;28;20299;-70
2021/05/19 12:04:28;;;;;;;3.37;2.53;;;19.00;94.30;;;;;;5100244;28;20218;-68
2021/05/19 12:06:55;;;;;;;2.60;2.40;;;19.00;93.80;;;;;;5091947;28;20214;-71
2021/05/19 12:09:23;;;;;;;2.38;2.08;;;19.00;93.10;;;;;;5110046;28;20234;-71
2021/05/19 12:11:50;;;;;;;3.63;2.60;;;19.10;92.40;;;;;;5113157;28;20208;-68
2021/05/19 12:14:18;;;;;;;2.50;2.30;;;19.30;92.10;;;;;;5112510;28;20616;-73
2021/05/19 12:16:48;;;;;;;2.85;2.20;;;19.50;92.10;;;;;;5093992;28;20288;-71
2021/05/19 12:19:16;;;;;;;2.22;2.05;;;19.70;91.00;;;;;;5092536;28;20233;-71
2021/05/19 12:21:44;;;;;;;3.72;2.10;;;19.70;88.10;;;;;;5094816;28;20211;-68
2021/05/19 12:24:12;;;;;;;2.85;1.90;;;19.70;87.80;;;;;;5096111;28;20236;-70
2021/05/19 12:26:40;;;;;;;2.00;1.80;;;19.70;86.20;;;;;;5093562;28;20704;-71
2021/05/19 12:29:33;;;;;;;3.05;1.55;;;19.70;83.10;;;;;;5093197;28;20220;-70
2021/05/19 12:32:10;;;;;;;2.00;1.80;;;19.80;81.50;;;;;;5086877;28;20201;-71
2021/05/19 12:34:38;;;;;;;2.15;1.65;;;19.90;80.60;;;;;;5088255;28;20209;-73
2021/05/19 12:37:05;;;;;;;2.05;1.60;;;20.10;77.00;;;;;;5105020;28;20200;-76
2021/05/19 12:39:33;;;;;;;2.03;1.60;;;20.20;76.80;;;;;;5097706;28;20204;-68
2021/05/19 12:42:00;;;;;;;3.20;1.67;;;20.40;75.50;;;;;;5092745;28;20204;-72
2021/05/19 12:44:29;;;;;;;2.33;1.48;;;20.60;74.30;;;;;;5096194;28;20258;-72
2021/05/19 12:47:05;;;;;;;1.40;1.27;;;20.60;72.90;;;;;;5099066;28;20227;-72
2021/05/19 12:49:33;;;;;;;1.58;1.48;;;20.70;73.70;;;;;;5103875;28;20223;-74
2021/05/19 12:52:03;;;;;;;1.67;1.25;;;20.70;73.00;;;;;;5096440;28;20207;-74
2021/05/19 12:54:33;;;;;;;1.85;0.93;;;20.80;71.60;;;;;;5098124;28;20296;-74
2021/05/19 12:57:05;;;;;;;1.35;0.93;;;20.90;69.30;;;;;;5096031;28;20208;-74
2021/05/19 12:59:52;;;;;;;1.55;1.45;;;20.90;67.10;;;;;;5099083;28;20220;-70